sensor_id;sensor_type;location;lat;lon;timestamp;temperature;humidity
21734;DHT22;11029;47.820;10.534;2023-04-10T00:02:08;1.00;71.00
21734;DHT22;11029;47.820;10.534;2023-04-10T00:04:35;1.00;71.10
21734;DHT22;11029;47.820;10.534;2023-04-10T00:07:02;1.00;71.20
21734;DHT22;11029;47.820;10.534;2023-04-10T00:09:29;1.10;70.80
21734;DHT22;11029;47.820;10.534;2023-04-10T00:11:56;1.10;70.00
21734;DHT22;11029;47.820;10.534;2023-04-10T00:14:23;1.00;70.30
21734;DHT22;11029;47.820;10.534;2023-04-10T00:16:50;1.20;68.80
21734;DHT22;11029;47.820;10.534;2023-04-10T00:19:17;1.00;68.90
21734;DHT22;11029;47.820;10.534;2023-04-10T00:21:44;1.00;68.40
21734;DHT22;11029;47.820;10.534;2023-04-10T00:24:10;0.90;68.20
21734;DHT22;11029;47.820;10.534;2023-04-10T00:26:37;0.90;68.40
21734;DHT22;11029;47.820;10.534;2023-04-10T00:29:04;0.90;68.40
21734;DHT22;11029;47.820;10.534;2023-04-10T00:31:31;0.90;68.20
21734;DHT22;11029;47.820;10.534;2023-04-10T00:33:58;1.00;68.00
21734;DHT22;11029;47.820;10.534;2023-04-10T00:36:25;0.80;67.50
21734;DHT22;11029;47.820;10.534;2023-04-10T00:38:53;0.80;66.30
21734;DHT22;11029;47.820;10.534;2023-04-10T00:41:20;0.90;66.40
21734;DHT22;11029;47.820;10.534;2023-04-10T00:43:49;1.00;66.50
21734;DHT22;11029;47.820;10.534;2023-04-10T00:46:16;0.90;66.60
21734;DHT22;11029;47.820;10.534;2023-04-10T00:48:43;0.80;67.20
21734;DHT22;11029;47.820;10.534;2023-04-10T00:51:10;0.70;67.80
21734;DHT22;11029;47.820;10.534;2023-04-10T00:53:37;0.80;67.60
21734;DHT22;11029;47.820;10.534;2023-04-10T00:56:05;0.80;67.70
21734;DHT22;11029;47.820;10.534;2023-04-10T00:58:32;0.80;67.20
21734;DHT22;11029;47.820;10.534;2023-04-10T01:00:59;0.80;66.90
21734;DHT22;11029;47.820;10.534;2023-04-10T01:03:25;0.60;67.30
21734;DHT22;11029;47.820;10.534;2023-04-10T01:09:21;0.40;68.20
21734;DHT22;11029;47.820;10.534;2023-04-10T01:11:58;0.40;67.80
21734;DHT22;11029;47.820;10.534;2023-04-10T01:17:11;0.30;67.90
21734;DHT22;11029;47.820;10.534;2023-04-10T01:25:39;0.00;68.00
21734;DHT22;11029;47.820;10.534;2023-04-10T01:30:43;0.20;66.90
21734;DHT22;11029;47.820;10.534;2023-04-10T01:33:13;0.20;66.90
21734;DHT22;11029;47.820;10.534;2023-04-10T01:35:45;0.20;67.40
21734;DHT22;11029;47.820;10.534;2023-04-10T01:38:15;0.10;67.80
21734;DHT22;11029;47.820;10.534;2023-04-10T01:40:43;-0.10;68.30
21734;DHT22;11029;47.820;10.534;2023-04-10T01:43:23;-0.10;69.00
21734;DHT22;11029;47.820;10.534;2023-04-10T01:45:52;0.00;68.50
21734;DHT22;11029;47.820;10.534;2023-04-10T01:48:19;0.00;70.00
21734;DHT22;11029;47.820;10.534;2023-04-10T01:50:47;0.00;68.40
21734;DHT22;11029;47.820;10.534;2023-04-10T01:53:14;0.00;69.00
21734;DHT22;11029;47.820;10.534;2023-04-10T01:55:42;-0.10;70.80
21734;DHT22;11029;47.820;10.534;2023-04-10T01:58:10;0.00;70.40
21734;DHT22;11029;47.820;10.534;2023-04-10T02:00:42;-0.20;69.90
21734;DHT22;11029;47.820;10.534;2023-04-10T02:03:11;-0.30;69.90
21734;DHT22;11029;47.820;10.534;2023-04-10T02:08:25;-0.10;69.50
21734;DHT22;11029;47.820;10.534;2023-04-10T02:10:59;-0.10;69.80
21734;DHT22;11029;47.820;10.534;2023-04-10T02:13:28;-0.10;69.90
21734;DHT22;11029;47.820;10.534;2023-04-10T02:15:57;-0.10;71.80
21734;DHT22;11029;47.820;10.534;2023-04-10T02:18:27;0.00;70.40
21734;DHT22;11029;47.820;10.534;2023-04-10T02:20:55;0.10;69.70
21734;DHT22;11029;47.820;10.534;2023-04-10T02:23:22;0.10;68.30
21734;DHT22;11029;47.820;10.534;2023-04-10T02:25:49;0.10;68.70
21734;DHT22;11029;47.820;10.534;2023-04-10T02:28:16;0.10;69.40
21734;DHT22;11029;47.820;10.534;2023-04-10T02:30:43;0.00;69.60
21734;DHT22;11029;47.820;10.534;2023-04-10T02:33:11;-0.10;70.00
21734;DHT22;11029;47.820;10.534;2023-04-10T02:35:38;-0.10;70.10
21734;DHT22;11029;47.820;10.534;2023-04-10T02:38:05;-0.20;69.50
21734;DHT22;11029;47.820;10.534;2023-04-10T02:40:35;-0.30;69.90
21734;DHT22;11029;47.820;10.534;2023-04-10T02:43:10;-0.20;69.50
21734;DHT22;11029;47.820;10.534;2023-04-10T02:45:37;-0.30;70.40
21734;DHT22;11029;47.820;10.534;2023-04-10T02:48:05;-0.40;71.50
21734;DHT22;11029;47.820;10.534;2023-04-10T02:50:33;-0.40;72.10
21734;DHT22;11029;47.820;10.534;2023-04-10T02:53:00;-0.30;71.70
21734;DHT22;11029;47.820;10.534;2023-04-10T02:55:27;-0.40;71.40
21734;DHT22;11029;47.820;10.534;2023-04-10T02:57:53;-0.50;71.00
21734;DHT22;11029;47.820;10.534;2023-04-10T03:00:21;-0.50;70.60
21734;DHT22;11029;47.820;10.534;2023-04-10T03:03:14;-0.40;70.00
21734;DHT22;11029;47.820;10.534;2023-04-10T03:05:46;-0.30;70.10
21734;DHT22;11029;47.820;10.534;2023-04-10T03:08:17;-0.20;68.90
21734;DHT22;11029;47.820;10.534;2023-04-10T03:10:44;-0.30;68.60
21734;DHT22;11029;47.820;10.534;2023-04-10T03:13:12;-0.40;68.00
21734;DHT22;11029;47.820;10.534;2023-04-10T03:15:39;-0.50;67.50
21734;DHT22;11029;47.820;10.534;2023-04-10T03:18:06;-0.70;68.60
21734;DHT22;11029;47.820;10.534;2023-04-10T03:20:32;-0.70;68.10
21734;DHT22;11029;47.820;10.534;2023-04-10T03:22:59;-0.60;69.10
21734;DHT22;11029;47.820;10.534;2023-04-10T03:25:26;-0.60;69.30
21734;DHT22;11029;47.820;10.534;2023-04-10T03:27:53;-0.60;69.70
21734;DHT22;11029;47.820;10.534;2023-04-10T03:30:21;-0.50;69.30
21734;DHT22;11029;47.820;10.534;2023-04-10T03:32:48;-0.60;69.10
21734;DHT22;11029;47.820;10.534;2023-04-10T03:35:14;-1.10;70.80
21734;DHT22;11029;47.820;10.534;2023-04-10T03:37:41;-1.20;71.60
21734;DHT22;11029;47.820;10.534;2023-04-10T03:40:09;-1.20;71.80
21734;DHT22;11029;47.820;10.534;2023-04-10T03:42:36;-1.20;71.40
21734;DHT22;11029;47.820;10.534;2023-04-10T03:45:04;-1.20;71.60
21734;DHT22;11029;47.820;10.534;2023-04-10T03:47:32;-1.10;71.50
21734;DHT22;11029;47.820;10.534;2023-04-10T03:50:01;-1.10;70.70
21734;DHT22;11029;47.820;10.534;2023-04-10T03:52:36;-1.20;70.80
21734;DHT22;11029;47.820;10.534;2023-04-10T03:55:04;-1.10;70.00
21734;DHT22;11029;47.820;10.534;2023-04-10T03:57:32;-1.10;68.40
21734;DHT22;11029;47.820;10.534;2023-04-10T04:00:03;-1.20;68.50
21734;DHT22;11029;47.820;10.534;2023-04-10T04:02:46;-1.10;68.30
21734;DHT22;11029;47.820;10.534;2023-04-10T04:05:21;-1.00;68.40
21734;DHT22;11029;47.820;10.534;2023-04-10T04:08:07;-1.00;68.00
21734;DHT22;11029;47.820;10.534;2023-04-10T04:10:39;-1.00;67.60
21734;DHT22;11029;47.820;10.534;2023-04-10T04:13:23;-1.10;68.10
21734;DHT22;11029;47.820;10.534;2023-04-10T04:16:01;-1.20;68.90
21734;DHT22;11029;47.820;10.534;2023-04-10T04:18:44;-1.20;68.90
21734;DHT22;11029;47.820;10.534;2023-04-10T04:21:34;-1.30;69.30
21734;DHT22;11029;47.820;10.534;2023-04-10T04:24:24;-1.20;69.30
21734;DHT22;11029;47.820;10.534;2023-04-10T04:27:04;-1.40;69.20
21734;DHT22;11029;47.820;10.534;2023-04-10T04:30:01;-1.50;68.70
21734;DHT22;11029;47.820;10.534;2023-04-10T04:33:04;-1.50;68.90
21734;DHT22;11029;47.820;10.534;2023-04-10T04:35:49;-1.40;68.30
21734;DHT22;11029;47.820;10.534;2023-04-10T04:38:54;-1.40;68.40
21734;DHT22;11029;47.820;10.534;2023-04-10T04:41:27;-1.30;68.90
21734;DHT22;11029;47.820;10.534;2023-04-10T04:44:09;-1.40;68.10
21734;DHT22;11029;47.820;10.534;2023-04-10T04:46:55;-1.40;68.20
21734;DHT22;11029;47.820;10.534;2023-04-10T04:49:40;-1.40;67.60
21734;DHT22;11029;47.820;10.534;2023-04-10T04:52:18;-1.50;68.40
21734;DHT22;11029;47.820;10.534;2023-04-10T04:54:57;-1.50;68.60
21734;DHT22;11029;47.820;10.534;2023-04-10T04:57:47;-1.30;67.40
21734;DHT22;11029;47.820;10.534;2023-04-10T05:00:23;-1.20;66.70
21734;DHT22;11029;47.820;10.534;2023-04-10T05:03:25;-1.20;66.80
21734;DHT22;11029;47.820;10.534;2023-04-10T05:06:12;-1.20;66.60
21734;DHT22;11029;47.820;10.534;2023-04-10T05:08:58;-1.20;66.50
21734;DHT22;11029;47.820;10.534;2023-04-10T05:11:45;-1.30;67.80
21734;DHT22;11029;47.820;10.534;2023-04-10T05:14:31;-1.40;69.80
21734;DHT22;11029;47.820;10.534;2023-04-10T05:17:24;-1.30;70.10
21734;DHT22;11029;47.820;10.534;2023-04-10T05:20:03;-1.10;69.60
21734;DHT22;11029;47.820;10.534;2023-04-10T05:22:42;-1.00;68.00
21734;DHT22;11029;47.820;10.534;2023-04-10T05:25:32;-0.90;68.40
21734;DHT22;11029;47.820;10.534;2023-04-10T05:28:07;-0.80;67.80
21734;DHT22;11029;47.820;10.534;2023-04-10T05:30:56;-0.60;68.20
21734;DHT22;11029;47.820;10.534;2023-04-10T05:33:42;-0.50;67.60
21734;DHT22;11029;47.820;10.534;2023-04-10T05:36:18;-0.30;67.70
21734;DHT22;11029;47.820;10.534;2023-04-10T05:39:01;-0.10;67.80
21734;DHT22;11029;47.820;10.534;2023-04-10T05:41:37;-0.10;67.30
21734;DHT22;11029;47.820;10.534;2023-04-10T05:44:19;-0.10;67.40
21734;DHT22;11029;47.820;10.534;2023-04-10T05:47:06;0.00;67.30
21734;DHT22;11029;47.820;10.534;2023-04-10T05:49:51;0.20;67.20
21734;DHT22;11029;47.820;10.534;2023-04-10T05:52:37;0.40;67.00
21734;DHT22;11029;47.820;10.534;2023-04-10T05:55:22;0.40;67.90
21734;DHT22;11029;47.820;10.534;2023-04-10T05:57:54;0.40;68.30
21734;DHT22;11029;47.820;10.534;2023-04-10T06:00:34;0.20;69.90
21734;DHT22;11029;47.820;10.534;2023-04-10T06:03:19;0.20;71.20
21734;DHT22;11029;47.820;10.534;2023-04-10T06:05:54;0.40;70.90
21734;DHT22;11029;47.820;10.534;2023-04-10T06:08:21;0.70;69.80
21734;DHT22;11029;47.820;10.534;2023-04-10T06:10:48;0.80;69.70
21734;DHT22;11029;47.820;10.534;2023-04-10T06:13:15;1.00;69.60
21734;DHT22;11029;47.820;10.534;2023-04-10T06:15:43;1.30;69.50
21734;DHT22;11029;47.820;10.534;2023-04-10T06:18:10;1.60;69.10
21734;DHT22;11029;47.820;10.534;2023-04-10T06:20:37;1.90;68.10
21734;DHT22;11029;47.820;10.534;2023-04-10T06:23:04;2.10;67.70
21734;DHT22;11029;47.820;10.534;2023-04-10T06:25:32;2.20;67.20
21734;DHT22;11029;47.820;10.534;2023-04-10T06:27:59;2.40;67.00
21734;DHT22;11029;47.820;10.534;2023-04-10T06:30:26;2.50;66.40
21734;DHT22;11029;47.820;10.534;2023-04-10T06:32:53;2.70;66.70
21734;DHT22;11029;47.820;10.534;2023-04-10T06:35:19;2.70;66.60
21734;DHT22;11029;47.820;10.534;2023-04-10T06:37:47;2.80;66.70
21734;DHT22;11029;47.820;10.534;2023-04-10T06:40:14;3.10;66.80
21734;DHT22;11029;47.820;10.534;2023-04-10T06:42:41;3.20;66.50
21734;DHT22;11029;47.820;10.534;2023-04-10T06:45:22;3.40;65.30
21734;DHT22;11029;47.820;10.534;2023-04-10T06:47:50;3.60;65.30
21734;DHT22;11029;47.820;10.534;2023-04-10T06:50:17;3.90;64.20
21734;DHT22;11029;47.820;10.534;2023-04-10T06:52:44;4.10;64.10
21734;DHT22;11029;47.820;10.534;2023-04-10T06:55:11;4.40;63.20
21734;DHT22;11029;47.820;10.534;2023-04-10T06:57:40;4.60;62.40
21734;DHT22;11029;47.820;10.534;2023-04-10T07:00:07;4.80;62.00
21734;DHT22;11029;47.820;10.534;2023-04-10T07:02:35;4.70;61.80
21734;DHT22;11029;47.820;10.534;2023-04-10T07:05:01;4.50;61.80
21734;DHT22;11029;47.820;10.534;2023-04-10T07:07:28;4.60;62.50
21734;DHT22;11029;47.820;10.534;2023-04-10T07:09:55;4.80;62.00
21734;DHT22;11029;47.820;10.534;2023-04-10T07:12:23;5.10;61.60
21734;DHT22;11029;47.820;10.534;2023-04-10T07:14:50;5.10;59.80
21734;DHT22;11029;47.820;10.534;2023-04-10T07:17:16;5.10;60.60
21734;DHT22;11029;47.820;10.534;2023-04-10T07:19:43;5.40;60.40
21734;DHT22;11029;47.820;10.534;2023-04-10T07:22:10;5.70;60.10
21734;DHT22;11029;47.820;10.534;2023-04-10T07:24:37;6.00;59.80
21734;DHT22;11029;47.820;10.534;2023-04-10T07:27:03;6.20;58.20
21734;DHT22;11029;47.820;10.534;2023-04-10T07:29:30;6.00;58.70
21734;DHT22;11029;47.820;10.534;2023-04-10T07:31:57;6.10;58.70
21734;DHT22;11029;47.820;10.534;2023-04-10T07:34:24;6.40;59.30
21734;DHT22;11029;47.820;10.534;2023-04-10T07:36:51;6.70;58.30
21734;DHT22;11029;47.820;10.534;2023-04-10T07:39:18;6.90;56.70
21734;DHT22;11029;47.820;10.534;2023-04-10T07:41:45;6.70;57.30
21734;DHT22;11029;47.820;10.534;2023-04-10T07:44:12;6.90;56.70
21734;DHT22;11029;47.820;10.534;2023-04-10T07:46:40;7.10;56.50
21734;DHT22;11029;47.820;10.534;2023-04-10T07:49:07;7.20;54.80
21734;DHT22;11029;47.820;10.534;2023-04-10T07:51:34;7.20;54.20
21734;DHT22;11029;47.820;10.534;2023-04-10T07:54:03;7.10;54.90
21734;DHT22;11029;47.820;10.534;2023-04-10T07:56:29;7.40;55.80
21734;DHT22;11029;47.820;10.534;2023-04-10T07:58:59;7.70;55.80
21734;DHT22;11029;47.820;10.534;2023-04-10T08:01:27;8.00;55.50
21734;DHT22;11029;47.820;10.534;2023-04-10T08:03:54;8.10;53.70
21734;DHT22;11029;47.820;10.534;2023-04-10T08:06:24;8.40;52.60
21734;DHT22;11029;47.820;10.534;2023-04-10T08:08:51;8.50;50.70
21734;DHT22;11029;47.820;10.534;2023-04-10T08:11:25;8.60;48.20
21734;DHT22;11029;47.820;10.534;2023-04-10T08:13:54;8.60;48.10
21734;DHT22;11029;47.820;10.534;2023-04-10T08:16:28;8.70;47.50
21734;DHT22;11029;47.820;10.534;2023-04-10T08:18:56;8.90;46.30
21734;DHT22;11029;47.820;10.534;2023-04-10T08:21:27;8.90;44.80
21734;DHT22;11029;47.820;10.534;2023-04-10T08:23:56;9.00;45.70
21734;DHT22;11029;47.820;10.534;2023-04-10T08:26:24;9.10;45.80
21734;DHT22;11029;47.820;10.534;2023-04-10T08:28:54;9.30;46.10
21734;DHT22;11029;47.820;10.534;2023-04-10T08:31:23;9.40;46.00
21734;DHT22;11029;47.820;10.534;2023-04-10T08:33:50;9.50;46.20
21734;DHT22;11029;47.820;10.534;2023-04-10T08:36:17;9.40;46.80
21734;DHT22;11029;47.820;10.534;2023-04-10T08:38:46;9.50;47.60
21734;DHT22;11029;47.820;10.534;2023-04-10T08:41:15;9.70;46.50
21734;DHT22;11029;47.820;10.534;2023-04-10T08:43:42;9.70;46.10
21734;DHT22;11029;47.820;10.534;2023-04-10T08:46:12;9.90;46.50
21734;DHT22;11029;47.820;10.534;2023-04-10T08:49:00;9.70;46.30
21734;DHT22;11029;47.820;10.534;2023-04-10T08:51:53;9.60;46.40
21734;DHT22;11029;47.820;10.534;2023-04-10T08:54:25;9.50;46.40
21734;DHT22;11029;47.820;10.534;2023-04-10T08:56:54;9.60;46.60
21734;DHT22;11029;47.820;10.534;2023-04-10T08:59:21;9.90;46.20
21734;DHT22;11029;47.820;10.534;2023-04-10T09:01:48;10.00;46.00
21734;DHT22;11029;47.820;10.534;2023-04-10T09:04:15;10.20;45.70
21734;DHT22;11029;47.820;10.534;2023-04-10T09:06:43;10.20;45.50
21734;DHT22;11029;47.820;10.534;2023-04-10T09:09:10;10.40;45.30
21734;DHT22;11029;47.820;10.534;2023-04-10T09:14:26;10.70;43.90
21734;DHT22;11029;47.820;10.534;2023-04-10T09:17:07;10.70;43.20
21734;DHT22;11029;47.820;10.534;2023-04-10T09:19:35;10.70;42.20
21734;DHT22;11029;47.820;10.534;2023-04-10T09:22:02;10.80;41.70
21734;DHT22;11029;47.820;10.534;2023-04-10T09:24:29;10.80;41.60
21734;DHT22;11029;47.820;10.534;2023-04-10T09:26:56;10.80;40.80
21734;DHT22;11029;47.820;10.534;2023-04-10T09:29:23;10.80;39.40
21734;DHT22;11029;47.820;10.534;2023-04-10T09:31:51;10.70;39.20
21734;DHT22;11029;47.820;10.534;2023-04-10T09:34:19;10.70;39.60
21734;DHT22;11029;47.820;10.534;2023-04-10T09:36:57;10.80;39.00
21734;DHT22;11029;47.820;10.534;2023-04-10T09:39:37;11.00;39.40
21734;DHT22;11029;47.820;10.534;2023-04-10T09:42:09;11.10;39.60
21734;DHT22;11029;47.820;10.534;2023-04-10T09:44:40;11.10;37.70
21734;DHT22;11029;47.820;10.534;2023-04-10T09:47:17;11.20;38.30
21734;DHT22;11029;47.820;10.534;2023-04-10T09:49:52;11.40;36.40
21734;DHT22;11029;47.820;10.534;2023-04-10T09:52:22;11.30;36.30
21734;DHT22;11029;47.820;10.534;2023-04-10T09:54:52;11.40;35.60
21734;DHT22;11029;47.820;10.534;2023-04-10T09:57:20;11.50;36.70
21734;DHT22;11029;47.820;10.534;2023-04-10T09:59:49;11.50;36.50
21734;DHT22;11029;47.820;10.534;2023-04-10T10:02:18;11.50;35.10
21734;DHT22;11029;47.820;10.534;2023-04-10T10:04:46;11.40;36.00
21734;DHT22;11029;47.820;10.534;2023-04-10T10:07:15;11.40;36.00
21734;DHT22;11029;47.820;10.534;2023-04-10T10:09:43;11.50;36.20
21734;DHT22;11029;47.820;10.534;2023-04-10T10:12:11;11.60;36.60
21734;DHT22;11029;47.820;10.534;2023-04-10T10:14:53;11.70;36.70
21734;DHT22;11029;47.820;10.534;2023-04-10T10:17:23;11.70;34.70
21734;DHT22;11029;47.820;10.534;2023-04-10T10:19:58;11.70;35.70
21734;DHT22;11029;47.820;10.534;2023-04-10T10:22:27;11.70;36.00
21734;DHT22;11029;47.820;10.534;2023-04-10T10:24:55;11.80;35.60
21734;DHT22;11029;47.820;10.534;2023-04-10T10:27:24;12.00;36.90
21734;DHT22;11029;47.820;10.534;2023-04-10T10:29:53;12.10;37.10
21734;DHT22;11029;47.820;10.534;2023-04-10T10:32:23;12.10;36.90
21734;DHT22;11029;47.820;10.534;2023-04-10T10:34:51;12.10;34.50
21734;DHT22;11029;47.820;10.534;2023-04-10T10:37:19;12.10;34.30
21734;DHT22;11029;47.820;10.534;2023-04-10T10:41:06;12.10;34.80
21734;DHT22;11029;47.820;10.534;2023-04-10T10:43:16;12.40;34.30
21734;DHT22;11029;47.820;10.534;2023-04-10T10:45:49;12.60;33.20
21734;DHT22;11029;47.820;10.534;2023-04-10T10:48:18;12.60;34.70
21734;DHT22;11029;47.820;10.534;2023-04-10T10:50:52;12.70;35.10
21734;DHT22;11029;47.820;10.534;2023-04-10T10:58:55;13.00;35.10
21734;DHT22;11029;47.820;10.534;2023-04-10T11:01:24;13.20;35.30
21734;DHT22;11029;47.820;10.534;2023-04-10T11:03:52;13.30;34.90
21734;DHT22;11029;47.820;10.534;2023-04-10T11:06:48;13.30;34.20
21734;DHT22;11029;47.820;10.534;2023-04-10T11:09:49;13.40;34.70
21734;DHT22;11029;47.820;10.534;2023-04-10T11:12:20;13.50;35.50
21734;DHT22;11029;47.820;10.534;2023-04-10T11:14:58;13.50;36.20
21734;DHT22;11029;47.820;10.534;2023-04-10T11:17:51;13.60;35.50
21734;DHT22;11029;47.820;10.534;2023-04-10T11:20:20;13.80;35.50
21734;DHT22;11029;47.820;10.534;2023-04-10T11:23:09;13.90;34.70
21734;DHT22;11029;47.820;10.534;2023-04-10T11:25:52;13.90;33.00
21734;DHT22;11029;47.820;10.534;2023-04-10T11:31:21;13.70;33.50
21734;DHT22;11029;47.820;10.534;2023-04-10T11:36:17;13.80;33.60
21734;DHT22;11029;47.820;10.534;2023-04-10T11:41:41;14.40;35.70
21734;DHT22;11029;47.820;10.534;2023-04-10T11:44:10;14.70;33.40
21734;DHT22;11029;47.820;10.534;2023-04-10T11:46:38;14.80;33.70
21734;DHT22;11029;47.820;10.534;2023-04-10T11:49:06;14.80;32.80
21734;DHT22;11029;47.820;10.534;2023-04-10T11:51:36;15.00;34.40
21734;DHT22;11029;47.820;10.534;2023-04-10T11:56:34;15.40;32.40
21734;DHT22;11029;47.820;10.534;2023-04-10T11:59:01;15.40;33.80
21734;DHT22;11029;47.820;10.534;2023-04-10T12:01:37;15.40;32.90
21734;DHT22;11029;47.820;10.534;2023-04-10T12:04:16;15.60;32.60
21734;DHT22;11029;47.820;10.534;2023-04-10T12:06:48;15.60;31.70
21734;DHT22;11029;47.820;10.534;2023-04-10T12:09:16;15.00;34.00
21734;DHT22;11029;47.820;10.534;2023-04-10T12:12:05;15.10;33.80
21734;DHT22;11029;47.820;10.534;2023-04-10T12:14:40;15.20;32.80
21734;DHT22;11029;47.820;10.534;2023-04-10T12:17:09;15.40;32.50
21734;DHT22;11029;47.820;10.534;2023-04-10T12:19:38;15.50;32.00
21734;DHT22;11029;47.820;10.534;2023-04-10T12:22:05;15.60;31.70
21734;DHT22;11029;47.820;10.534;2023-04-10T12:24:45;15.30;31.50
21734;DHT22;11029;47.820;10.534;2023-04-10T12:29:44;15.40;32.90
21734;DHT22;11029;47.820;10.534;2023-04-10T12:32:11;15.40;31.70
21734;DHT22;11029;47.820;10.534;2023-04-10T12:34:38;15.80;31.70
21734;DHT22;11029;47.820;10.534;2023-04-10T12:37:06;15.50;31.60
21734;DHT22;11029;47.820;10.534;2023-04-10T12:39:32;15.70;32.00
21734;DHT22;11029;47.820;10.534;2023-04-10T12:42:20;15.60;33.00
21734;DHT22;11029;47.820;10.534;2023-04-10T12:47:17;15.70;32.80
21734;DHT22;11029;47.820;10.534;2023-04-10T12:52:29;16.40;31.10
21734;DHT22;11029;47.820;10.534;2023-04-10T12:55:15;16.60;31.30
21734;DHT22;11029;47.820;10.534;2023-04-10T12:57:44;16.80;30.70
21734;DHT22;11029;47.820;10.534;2023-04-10T13:00:14;17.00;30.90
21734;DHT22;11029;47.820;10.534;2023-04-10T13:02:41;17.20;31.40
21734;DHT22;11029;47.820;10.534;2023-04-10T13:05:08;16.90;30.30
21734;DHT22;11029;47.820;10.534;2023-04-10T13:07:36;16.90;30.20
21734;DHT22;11029;47.820;10.534;2023-04-10T13:10:04;16.50;30.20
21734;DHT22;11029;47.820;10.534;2023-04-10T13:12:31;16.10;31.30
21734;DHT22;11029;47.820;10.534;2023-04-10T13:15:00;16.00;32.30
21734;DHT22;11029;47.820;10.534;2023-04-10T13:17:27;15.80;31.70
21734;DHT22;11029;47.820;10.534;2023-04-10T13:19:54;15.70;31.80
21734;DHT22;11029;47.820;10.534;2023-04-10T13:22:20;16.00;31.20
21734;DHT22;11029;47.820;10.534;2023-04-10T13:24:47;16.10;31.20
21734;DHT22;11029;47.820;10.534;2023-04-10T13:27:14;16.30;32.30
21734;DHT22;11029;47.820;10.534;2023-04-10T13:29:41;16.50;31.60
21734;DHT22;11029;47.820;10.534;2023-04-10T13:32:08;16.60;32.10
21734;DHT22;11029;47.820;10.534;2023-04-10T13:34:35;16.80;32.50
21734;DHT22;11029;47.820;10.534;2023-04-10T13:37:02;17.20;31.30
21734;DHT22;11029;47.820;10.534;2023-04-10T13:39:29;17.60;32.00
21734;DHT22;11029;47.820;10.534;2023-04-10T13:41:57;18.10;30.40
21734;DHT22;11029;47.820;10.534;2023-04-10T13:44:24;18.50;30.10
21734;DHT22;11029;47.820;10.534;2023-04-10T13:46:51;18.70;30.00
21734;DHT22;11029;47.820;10.534;2023-04-10T13:49:19;18.50;29.40
21734;DHT22;11029;47.820;10.534;2023-04-10T13:51:47;18.80;29.60
21734;DHT22;11029;47.820;10.534;2023-04-10T13:54:14;19.10;30.00
21734;DHT22;11029;47.820;10.534;2023-04-10T13:56:43;19.30;29.20
21734;DHT22;11029;47.820;10.534;2023-04-10T13:59:12;19.50;29.20
21734;DHT22;11029;47.820;10.534;2023-04-10T14:01:39;19.20;27.80
21734;DHT22;11029;47.820;10.534;2023-04-10T14:04:06;19.50;29.00
21734;DHT22;11029;47.820;10.534;2023-04-10T14:06:33;19.90;28.50
21734;DHT22;11029;47.820;10.534;2023-04-10T14:09:00;20.10;28.40
21734;DHT22;11029;47.820;10.534;2023-04-10T14:11:27;20.30;27.50
21734;DHT22;11029;47.820;10.534;2023-04-10T14:13:53;20.00;27.80
21734;DHT22;11029;47.820;10.534;2023-04-10T14:16:20;19.90;27.80
21734;DHT22;11029;47.820;10.534;2023-04-10T14:18:48;19.60;28.80
21734;DHT22;11029;47.820;10.534;2023-04-10T14:21:15;19.70;28.80
21734;DHT22;11029;47.820;10.534;2023-04-10T14:23:43;19.70;28.10
21734;DHT22;11029;47.820;10.534;2023-04-10T14:26:10;19.80;27.40
21734;DHT22;11029;47.820;10.534;2023-04-10T14:28:37;20.20;27.80
21734;DHT22;11029;47.820;10.534;2023-04-10T14:31:04;20.00;27.30
21734;DHT22;11029;47.820;10.534;2023-04-10T14:33:31;19.50;27.40
21734;DHT22;11029;47.820;10.534;2023-04-10T14:35:58;19.80;27.70
21734;DHT22;11029;47.820;10.534;2023-04-10T14:38:25;20.10;27.30
21734;DHT22;11029;47.820;10.534;2023-04-10T14:40:52;20.10;27.10
21734;DHT22;11029;47.820;10.534;2023-04-10T14:43:19;19.80;28.90
21734;DHT22;11029;47.820;10.534;2023-04-10T14:45:46;19.30;29.00
21734;DHT22;11029;47.820;10.534;2023-04-10T14:48:13;18.90;28.50
21734;DHT22;11029;47.820;10.534;2023-04-10T14:50:40;18.40;29.20
21734;DHT22;11029;47.820;10.534;2023-04-10T14:53:07;18.40;29.70
21734;DHT22;11029;47.820;10.534;2023-04-10T14:55:35;18.70;29.60
21734;DHT22;11029;47.820;10.534;2023-04-10T14:58:03;18.90;29.00
21734;DHT22;11029;47.820;10.534;2023-04-10T15:00:30;18.80;29.00
21734;DHT22;11029;47.820;10.534;2023-04-10T15:02:57;18.20;29.80
21734;DHT22;11029;47.820;10.534;2023-04-10T15:05:25;18.10;29.70
21734;DHT22;11029;47.820;10.534;2023-04-10T15:07:52;18.60;29.30
21734;DHT22;11029;47.820;10.534;2023-04-10T15:10:19;18.80;28.80
21734;DHT22;11029;47.820;10.534;2023-04-10T15:12:45;19.30;29.40
21734;DHT22;11029;47.820;10.534;2023-04-10T15:15:12;19.50;28.90
21734;DHT22;11029;47.820;10.534;2023-04-10T15:17:39;19.20;28.30
21734;DHT22;11029;47.820;10.534;2023-04-10T15:20:07;19.30;28.50
21734;DHT22;11029;47.820;10.534;2023-04-10T15:22:33;19.10;28.10
21734;DHT22;11029;47.820;10.534;2023-04-10T15:25:01;19.00;28.80
21734;DHT22;11029;47.820;10.534;2023-04-10T15:27:28;19.20;28.50
21734;DHT22;11029;47.820;10.534;2023-04-10T15:29:55;19.10;28.30
21734;DHT22;11029;47.820;10.534;2023-04-10T15:32:22;19.10;29.90
21734;DHT22;11029;47.820;10.534;2023-04-10T15:34:49;19.00;29.10
21734;DHT22;11029;47.820;10.534;2023-04-10T15:37:16;18.40;32.00
21734;DHT22;11029;47.820;10.534;2023-04-10T15:39:43;17.80;32.10
21734;DHT22;11029;47.820;10.534;2023-04-10T15:42:10;17.80;31.90
21734;DHT22;11029;47.820;10.534;2023-04-10T15:44:36;17.80;32.40
21734;DHT22;11029;47.820;10.534;2023-04-10T15:47:03;17.20;33.10
21734;DHT22;11029;47.820;10.534;2023-04-10T15:49:30;16.80;35.10
21734;DHT22;11029;47.820;10.534;2023-04-10T15:52:06;16.30;36.30
21734;DHT22;11029;47.820;10.534;2023-04-10T15:54:33;16.30;36.40
21734;DHT22;11029;47.820;10.534;2023-04-10T15:57:01;16.20;35.30
21734;DHT22;11029;47.820;10.534;2023-04-10T15:59:28;16.00;35.00
21734;DHT22;11029;47.820;10.534;2023-04-10T16:01:55;15.80;35.60
21734;DHT22;11029;47.820;10.534;2023-04-10T16:04:22;15.70;36.20
21734;DHT22;11029;47.820;10.534;2023-04-10T16:06:49;15.70;35.00
21734;DHT22;11029;47.820;10.534;2023-04-10T16:09:16;15.70;34.50
21734;DHT22;11029;47.820;10.534;2023-04-10T16:11:53;15.80;34.20
21734;DHT22;11029;47.820;10.534;2023-04-10T16:14:20;15.90;33.50
21734;DHT22;11029;47.820;10.534;2023-04-10T16:16:47;16.00;33.00
21734;DHT22;11029;47.820;10.534;2023-04-10T16:19:14;15.90;32.70
21734;DHT22;11029;47.820;10.534;2023-04-10T16:21:41;15.80;32.70
21734;DHT22;11029;47.820;10.534;2023-04-10T16:24:08;15.70;32.70
21734;DHT22;11029;47.820;10.534;2023-04-10T16:26:35;15.50;32.60
21734;DHT22;11029;47.820;10.534;2023-04-10T16:29:01;15.40;31.40